Aérodrome :
LOGIN :

S'inscrire | Disclaimer

   EN    FR    IT 

 










Légende :    VFR   VFR Marginal   IFR   IFR Intensif   IFR Très Intensif
Visi : 
Plafond : 
>= 8 km
>= 3000ft
5 à 8 km
1000 à 3000 ft
1500m à 5 km
500 à 1000 ft
800 à 1500m
200 à 500 ft
< 800m
< 200 ft
Symboles :   Orages  Brouillard  Fortes neiges  Fortes précipitations  Vent > 20 kt
SIGMETs :   Divers  Orages  Givrage  Turbulence  Onde Orograph.  Cendres Volcan.







- Altitude de l'aérodrome : 3 ft
- Code IATA : LWR


EHLW - Leuuwarden Air Base

DERNIER METAR :
  • 141457Z AUTO 29012KT 260V320 9999 SCT022 BKN028 BKN032 19/14 Q1014 WHT

METARs EXPIRÉS :
  • 141455Z AUTO 29011KT 260V320 9999 SCT026 BKN031 BKN330 20/14 Q1014 BLU
  • 141438Z AUTO 30012KT 250V320 9999 SCT023 SCT027 BKN030 20/14 Q1014 WHT
  • 141431Z AUTO 30013KT 250V310 9999 SCT025 BKN028 BKN032 20/14 Q1014 BLU
  • 141425Z AUTO 30013KT 260V320 9999 FEW024 BKN028 BKN300 20/14 Q1014 BLU 30015G25KT 9999 BKN024 RMK R23
  • 141355Z AUTO 30013KT 240V320 9999 BKN025 BKN033 BKN320 20/13 Q1014 BLU 30015G25KT 9999 BKN024 RMK R23
  • 141327Z AUTO 30016KT 250V320 9999 FEW024 BKN031 20/14 Q1014 BLU 30015G25KT 9999 BKN024 RMK R23
  • 141325Z AUTO 30015KT 250V320 9999 SCT024 BKN029 BKN034 19/14 Q1014 WHT 30015G25KT 9999 BKN024 RMK R23
  • 141311Z AUTO 29015KT 260V330 9999 FEW024 BKN027 BKN031 20/14 Q1014 BLU 30015G25KT 9999 BKN024 RMK R23
  • 141302Z AUTO 29016KT 260V330 9999 SCT024 BKN029 BKN033 20/14 Q1013 WHT 30015G25KT 9999 BKN024 RMK R23
  • 141255Z AUTO 30014KT 250V320 9999 BKN024 BKN027 BKN031 20/13 Q1013 WHT 30015G25KT 9999 SCT024 RMK R23
  • 141238Z AUTO 30014KT 240V320 9999 FEW023 SCT028 BKN031 19/14 Q1013 BLU 30015G25KT 9999 SCT024 RMK R23
  • 141225Z AUTO 29015KT 260V330 9999 SCT024 BKN028 OVC031 20/14 Q1013 WHT 30015G25KT 9999 SCT024 RMK R23

TAF TAF EHLW
Valide du 14 à 09h jusqu'au 14 à 21h UTC


140832Z 1409/1421 30012KT 9999 SCT020
BECMG 1409/1411 28015G27KT
BECMG 1415/1418 26009KT
Pas de NOTAMs connus pour ce terrain.



MET'MAP, la Météo Aéronautique d'un coup d'oeil ! - Copyright ORBIFLY Décembre 2007 - Disclaimer

ORBIFLY MET'MAP TEAM :

Programmation & Développement : Alexandra Zaïnal
Conception & Développement : Baudouin d'Aumeries
Co-Programmation & Développement : Marc-Olivier Méhu
Soutien technique & logistique : Manuel Goepfert

Contact : metmap@orbifly.com




SOURCES & CREDITS :

   NOAA